Sainte-Marguerite, Canada
Current Conditions -  °F | °C
As of 8:00 AM on Thursday 30 Oct 2014 (Local Time) from CYMX Reporting Station
Few Clouds Few Clouds  
Wind Chill: 36°   Ceiling: Unl
Heat Index: 36°   Visibility: 35mi
Dew Point: 32°   Wind: 3mph
Humidity: 87%   Direction: 270°W
Pressure: 29.96"   Gusts: NA
Location:  46.03°N, 74.07°W
Report Text: CYMX 301200Z 27003KT 230V300 35SM FEW025 02/M00 A2996 RMK SC2 SLP148
Loading
Personal Weather Stations






























Interactive Weather Map
Tropical Storm Tracking
New forecast layout! Learn more

10-Day Weather Forecast

Advertisements
Track Severe Weather on mobile